This is the latest recevied weather packets stored in our database for station/object 9W2SSS-1. If no packets are shown the sender has not sent any weather packets the latest 10 day(s).
| Time | Temp. | Humidity | Pressure | Rain* | Wind** | Luminosity | Snow |
|---|---|---|---|---|---|---|---|
| 1777527795 | 36.11° C | 45% | 1007.6 hPa | - | - | - | - |
| 1777526595 | 36.11° C | 45% | 1008 hPa | - | - | - | - |
| 1777525395 | 36.11° C | 44% | 1008.2 hPa | - | - | - | - |
| 1777524194 | 36.11° C | 44% | 1008.6 hPa | - | - | - | - |
| 1777522994 | 36.67° C | 45% | 1009 hPa | - | - | - | - |
| 1777521793 | 36.67° C | 45% | 1009.3 hPa | - | - | - | - |
| 1777520593 | 37.22° C | 45% | 1009.3 hPa | - | - | - | - |
| 1777519393 | 37.22° C | 45% | 1009.4 hPa | - | - | - | - |
| 1777518192 | 41.11° C | 37% | 1009.5 hPa | - | - | - | - |
| 1777516992 | 41.67° C | 37% | 1009.7 hPa | - | - | - | - |
| 1777515791 | 41.11° C | 37% | 1009.9 hPa | - | - | - | - |
| 1777514591 | 41.11° C | 38% | 1009.8 hPa | - | - | - | - |
| 1777508591 | 37.78° C | 46% | 1009.3 hPa | - | - | - | - |
| 1777507391 | 35° C | 52% | 1009.1 hPa | - | - | - | - |
| 1777506191 | 31.11° C | 64% | 1009.1 hPa | - | - | - | - |
| 1777504991 | 30° C | 66% | 1009.1 hPa | - | - | - | - |
| 1777501391 | 28.33° C | 62% | 1008.6 hPa | - | - | - | - |
| 1777500191 | 28.89° C | 63% | 1008.4 hPa | - | - | - | - |
| 1777497791 | 29.44° C | 63% | 1008 hPa | - | - | - | - |
| 1777496591 | 30° C | 67% | 1008 hPa | - | - | - | - |
| 1777494191 | 30° C | 68% | 1008.2 hPa | - | - | - | - |
| 1777492991 | 30° C | 67% | 1008.1 hPa | - | - | - | - |
| 1777491791 | 30° C | 66% | 1008.2 hPa | - | - | - | - |
| 1777490591 | 30° C | 66% | 1008.1 hPa | - | - | - | - |
| 1777479790 | 30° C | 61% | 1009.6 hPa | - | - | - | - |
* Rain since midnight (hover to see other rain measurements)
** Current wind speed in m/s (hover to see current wind gust speed)